sensor_id;sensor_type;location;lat;lon;timestamp;P1;durP1;ratioP1;P2;durP2;ratioP2
56233;SDS011;42141;53.240;6.580;2022-08-19T00:00:29;10.13;;;5.72;;
56233;SDS011;42141;53.240;6.580;2022-08-19T00:02:54;5.85;;;5.05;;
56233;SDS011;42141;53.240;6.580;2022-08-19T00:05:21;11.32;;;6.47;;
56233;SDS011;42141;53.240;6.580;2022-08-19T00:07:47;9.73;;;7.22;;
56233;SDS011;42141;53.240;6.580;2022-08-19T00:10:15;12.80;;;6.80;;
56233;SDS011;42141;53.240;6.580;2022-08-19T00:12:41;9.38;;;5.70;;
56233;SDS011;42141;53.240;6.580;2022-08-19T00:15:08;10.05;;;6.90;;
56233;SDS011;42141;53.240;6.580;2022-08-19T00:17:38;6.93;;;6.03;;
56233;SDS011;42141;53.240;6.580;2022-08-19T00:20:05;6.45;;;5.05;;
56233;SDS011;42141;53.240;6.580;2022-08-19T00:22:32;7.15;;;4.82;;
56233;SDS011;42141;53.240;6.580;2022-08-19T00:24:58;7.50;;;5.43;;
56233;SDS011;42141;53.240;6.580;2022-08-19T00:27:23;6.25;;;5.30;;
56233;SDS011;42141;53.240;6.580;2022-08-19T00:29:49;11.77;;;5.72;;
56233;SDS011;42141;53.240;6.580;2022-08-19T00:32:15;7.82;;;5.45;;
56233;SDS011;42141;53.240;6.580;2022-08-19T00:34:41;6.50;;;5.45;;
56233;SDS011;42141;53.240;6.580;2022-08-19T00:37:07;11.20;;;5.45;;
56233;SDS011;42141;53.240;6.580;2022-08-19T00:39:32;9.63;;;5.95;;
56233;SDS011;42141;53.240;6.580;2022-08-19T00:41:58;9.50;;;6.15;;
56233;SDS011;42141;53.240;6.580;2022-08-19T00:44:25;7.90;;;5.30;;
56233;SDS011;42141;53.240;6.580;2022-08-19T00:46:53;7.43;;;5.15;;
56233;SDS011;42141;53.240;6.580;2022-08-19T00:49:29;9.90;;;6.00;;
56233;SDS011;42141;53.240;6.580;2022-08-19T00:52:00;9.23;;;5.75;;
56233;SDS011;42141;53.240;6.580;2022-08-19T00:54:29;10.13;;;5.20;;
56233;SDS011;42141;53.240;6.580;2022-08-19T00:56:56;6.75;;;5.65;;
56233;SDS011;42141;53.240;6.580;2022-08-19T00:59:23;5.85;;;4.93;;
56233;SDS011;42141;53.240;6.580;2022-08-19T01:01:50;5.40;;;3.95;;
56233;SDS011;42141;53.240;6.580;2022-08-19T01:04:16;10.38;;;6.10;;
56233;SDS011;42141;53.240;6.580;2022-08-19T01:06:42;12.88;;;6.20;;
56233;SDS011;42141;53.240;6.580;2022-08-19T01:09:08;11.30;;;5.50;;
56233;SDS011;42141;53.240;6.580;2022-08-19T01:11:35;12.30;;;5.68;;
56233;SDS011;42141;53.240;6.580;2022-08-19T01:14:05;8.30;;;6.30;;
56233;SDS011;42141;53.240;6.580;2022-08-19T01:16:32;6.60;;;5.95;;
56233;SDS011;42141;53.240;6.580;2022-08-19T01:18:59;8.60;;;6.13;;
56233;SDS011;42141;53.240;6.580;2022-08-19T01:21:28;20.83;;;6.43;;
56233;SDS011;42141;53.240;6.580;2022-08-19T01:23:59;10.45;;;6.10;;
56233;SDS011;42141;53.240;6.580;2022-08-19T01:26:25;10.60;;;6.18;;
56233;SDS011;42141;53.240;6.580;2022-08-19T01:28:54;8.70;;;5.90;;
56233;SDS011;42141;53.240;6.580;2022-08-19T01:31:23;9.45;;;6.60;;
56233;SDS011;42141;53.240;6.580;2022-08-19T01:33:50;10.32;;;7.47;;
56233;SDS011;42141;53.240;6.580;2022-08-19T01:36:23;7.78;;;6.22;;
56233;SDS011;42141;53.240;6.580;2022-08-19T01:38:54;12.15;;;5.68;;
56233;SDS011;42141;53.240;6.580;2022-08-19T01:41:20;8.73;;;5.80;;
56233;SDS011;42141;53.240;6.580;2022-08-19T01:43:47;12.27;;;5.57;;
56233;SDS011;42141;53.240;6.580;2022-08-19T01:46:14;7.13;;;5.50;;
56233;SDS011;42141;53.240;6.580;2022-08-19T01:48:41;6.53;;;5.20;;
56233;SDS011;42141;53.240;6.580;2022-08-19T01:51:08;8.20;;;5.15;;
56233;SDS011;42141;53.240;6.580;2022-08-19T01:53:35;12.80;;;6.10;;
56233;SDS011;42141;53.240;6.580;2022-08-19T01:56:01;5.78;;;5.07;;
56233;SDS011;42141;53.240;6.580;2022-08-19T01:58:30;7.10;;;5.63;;
56233;SDS011;42141;53.240;6.580;2022-08-19T02:01:01;10.82;;;6.07;;
56233;SDS011;42141;53.240;6.580;2022-08-19T02:03:27;6.75;;;5.20;;
56233;SDS011;42141;53.240;6.580;2022-08-19T02:05:58;10.07;;;5.35;;
56233;SDS011;42141;53.240;6.580;2022-08-19T02:08:32;11.15;;;5.28;;
56233;SDS011;42141;53.240;6.580;2022-08-19T02:11:00;9.40;;;6.50;;
56233;SDS011;42141;53.240;6.580;2022-08-19T02:13:26;14.38;;;7.68;;
56233;SDS011;42141;53.240;6.580;2022-08-19T02:15:52;11.18;;;6.32;;
56233;SDS011;42141;53.240;6.580;2022-08-19T02:18:18;14.20;;;6.68;;
56233;SDS011;42141;53.240;6.580;2022-08-19T02:20:44;10.45;;;7.43;;
56233;SDS011;42141;53.240;6.580;2022-08-19T02:23:12;8.07;;;6.65;;
56233;SDS011;42141;53.240;6.580;2022-08-19T02:25:39;14.13;;;6.93;;
56233;SDS011;42141;53.240;6.580;2022-08-19T02:28:05;10.40;;;7.65;;
56233;SDS011;42141;53.240;6.580;2022-08-19T02:30:32;7.40;;;6.55;;
56233;SDS011;42141;53.240;6.580;2022-08-19T02:32:58;10.18;;;7.28;;
56233;SDS011;42141;53.240;6.580;2022-08-19T02:35:24;10.85;;;6.82;;
56233;SDS011;42141;53.240;6.580;2022-08-19T02:37:50;12.13;;;7.35;;
56233;SDS011;42141;53.240;6.580;2022-08-19T02:40:35;11.02;;;6.65;;
56233;SDS011;42141;53.240;6.580;2022-08-19T02:43:01;13.05;;;8.73;;
56233;SDS011;42141;53.240;6.580;2022-08-19T02:45:34;12.57;;;8.57;;
56233;SDS011;42141;53.240;6.580;2022-08-19T02:48:02;13.07;;;7.95;;
56233;SDS011;42141;53.240;6.580;2022-08-19T02:50:30;14.43;;;9.00;;
56233;SDS011;42141;53.240;6.580;2022-08-19T02:52:56;13.52;;;9.02;;
56233;SDS011;42141;53.240;6.580;2022-08-19T02:55:22;12.95;;;8.82;;
56233;SDS011;42141;53.240;6.580;2022-08-19T02:57:48;13.95;;;8.90;;
56233;SDS011;42141;53.240;6.580;2022-08-19T03:00:14;12.00;;;8.55;;
56233;SDS011;42141;53.240;6.580;2022-08-19T03:02:40;14.88;;;8.57;;
56233;SDS011;42141;53.240;6.580;2022-08-19T03:05:08;10.63;;;8.95;;
56233;SDS011;42141;53.240;6.580;2022-08-19T03:07:35;12.60;;;8.88;;
56233;SDS011;42141;53.240;6.580;2022-08-19T03:10:01;17.85;;;9.55;;
56233;SDS011;42141;53.240;6.580;2022-08-19T03:12:28;16.13;;;9.30;;
56233;SDS011;42141;53.240;6.580;2022-08-19T03:14:54;11.23;;;8.55;;
56233;SDS011;42141;53.240;6.580;2022-08-19T03:17:19;11.50;;;8.60;;
56233;SDS011;42141;53.240;6.580;2022-08-19T03:19:45;14.93;;;8.43;;
56233;SDS011;42141;53.240;6.580;2022-08-19T03:22:11;10.32;;;7.15;;
56233;SDS011;42141;53.240;6.580;2022-08-19T03:24:37;11.63;;;8.10;;
56233;SDS011;42141;53.240;6.580;2022-08-19T03:27:04;12.55;;;6.65;;
56233;SDS011;42141;53.240;6.580;2022-08-19T03:29:30;12.88;;;6.47;;
56233;SDS011;42141;53.240;6.580;2022-08-19T03:31:57;13.23;;;6.68;;
56233;SDS011;42141;53.240;6.580;2022-08-19T03:34:27;8.50;;;6.32;;
56233;SDS011;42141;53.240;6.580;2022-08-19T03:36:58;14.60;;;6.80;;
56233;SDS011;42141;53.240;6.580;2022-08-19T03:39:28;10.02;;;6.10;;
56233;SDS011;42141;53.240;6.580;2022-08-19T03:41:54;9.98;;;6.10;;
56233;SDS011;42141;53.240;6.580;2022-08-19T03:44:25;11.20;;;6.38;;
56233;SDS011;42141;53.240;6.580;2022-08-19T03:46:51;14.82;;;6.25;;
56233;SDS011;42141;53.240;6.580;2022-08-19T03:49:20;10.82;;;5.22;;
56233;SDS011;42141;53.240;6.580;2022-08-19T03:51:47;8.02;;;5.88;;
56233;SDS011;42141;53.240;6.580;2022-08-19T03:54:16;8.20;;;6.10;;
56233;SDS011;42141;53.240;6.580;2022-08-19T03:56:44;7.05;;;5.40;;
56233;SDS011;42141;53.240;6.580;2022-08-19T03:59:13;8.90;;;6.07;;
56233;SDS011;42141;53.240;6.580;2022-08-19T04:01:42;6.97;;;5.35;;
56233;SDS011;42141;53.240;6.580;2022-08-19T04:04:08;7.00;;;5.28;;
56233;SDS011;42141;53.240;6.580;2022-08-19T04:06:35;12.82;;;4.50;;
56233;SDS011;42141;53.240;6.580;2022-08-19T04:09:03;8.07;;;5.30;;
56233;SDS011;42141;53.240;6.580;2022-08-19T04:11:33;5.47;;;4.93;;
56233;SDS011;42141;53.240;6.580;2022-08-19T04:14:00;7.25;;;5.68;;
56233;SDS011;42141;53.240;6.580;2022-08-19T04:16:27;8.10;;;5.13;;
56233;SDS011;42141;53.240;6.580;2022-08-19T04:18:56;8.57;;;6.25;;
56233;SDS011;42141;53.240;6.580;2022-08-19T04:21:25;7.45;;;5.45;;
56233;SDS011;42141;53.240;6.580;2022-08-19T04:23:52;7.72;;;5.85;;
56233;SDS011;42141;53.240;6.580;2022-08-19T04:26:23;12.05;;;5.95;;
56233;SDS011;42141;53.240;6.580;2022-08-19T04:28:51;13.70;;;6.88;;
56233;SDS011;42141;53.240;6.580;2022-08-19T04:31:19;11.60;;;7.13;;
56233;SDS011;42141;53.240;6.580;2022-08-19T04:34:00;10.13;;;7.45;;
56233;SDS011;42141;53.240;6.580;2022-08-19T04:36:28;12.00;;;6.88;;
56233;SDS011;42141;53.240;6.580;2022-08-19T04:38:57;9.30;;;6.85;;
56233;SDS011;42141;53.240;6.580;2022-08-19T04:41:25;12.55;;;6.80;;
56233;SDS011;42141;53.240;6.580;2022-08-19T04:44:10;11.50;;;7.07;;
56233;SDS011;42141;53.240;6.580;2022-08-19T04:46:37;10.40;;;6.55;;
56233;SDS011;42141;53.240;6.580;2022-08-19T04:49:04;15.27;;;7.53;;
56233;SDS011;42141;53.240;6.580;2022-08-19T04:51:31;10.90;;;7.28;;
56233;SDS011;42141;53.240;6.580;2022-08-19T04:53:58;11.27;;;7.15;;
56233;SDS011;42141;53.240;6.580;2022-08-19T04:56:25;12.40;;;7.40;;
56233;SDS011;42141;53.240;6.580;2022-08-19T04:58:51;11.32;;;7.53;;
56233;SDS011;42141;53.240;6.580;2022-08-19T05:01:23;10.80;;;7.43;;
56233;SDS011;42141;53.240;6.580;2022-08-19T05:03:51;12.18;;;7.53;;
56233;SDS011;42141;53.240;6.580;2022-08-19T05:06:18;11.60;;;7.57;;
56233;SDS011;42141;53.240;6.580;2022-08-19T05:08:45;9.82;;;7.18;;
56233;SDS011;42141;53.240;6.580;2022-08-19T05:11:16;11.57;;;7.47;;
56233;SDS011;42141;53.240;6.580;2022-08-19T05:13:45;11.82;;;6.47;;
56233;SDS011;42141;53.240;6.580;2022-08-19T05:16:12;17.77;;;7.47;;
56233;SDS011;42141;53.240;6.580;2022-08-19T05:18:39;15.63;;;7.55;;
56233;SDS011;42141;53.240;6.580;2022-08-19T05:21:24;11.02;;;7.18;;
56233;SDS011;42141;53.240;6.580;2022-08-19T05:24:09;9.85;;;7.07;;
56233;SDS011;42141;53.240;6.580;2022-08-19T05:26:36;11.13;;;7.60;;
56233;SDS011;42141;53.240;6.580;2022-08-19T05:29:06;11.27;;;8.07;;
56233;SDS011;42141;53.240;6.580;2022-08-19T05:31:33;17.88;;;8.25;;
56233;SDS011;42141;53.240;6.580;2022-08-19T05:34:01;15.20;;;7.63;;
56233;SDS011;42141;53.240;6.580;2022-08-19T05:36:32;10.65;;;8.10;;
56233;SDS011;42141;53.240;6.580;2022-08-19T05:39:00;11.45;;;8.05;;
56233;SDS011;42141;53.240;6.580;2022-08-19T05:41:28;17.88;;;8.00;;
56233;SDS011;42141;53.240;6.580;2022-08-19T05:44:00;12.48;;;8.70;;
56233;SDS011;42141;53.240;6.580;2022-08-19T05:46:27;10.07;;;6.13;;
56233;SDS011;42141;53.240;6.580;2022-08-19T05:48:53;13.20;;;8.73;;
56233;SDS011;42141;53.240;6.580;2022-08-19T05:51:21;8.32;;;7.15;;
56233;SDS011;42141;53.240;6.580;2022-08-19T05:53:48;13.68;;;7.95;;
56233;SDS011;42141;53.240;6.580;2022-08-19T05:56:14;13.85;;;8.05;;
56233;SDS011;42141;53.240;6.580;2022-08-19T05:58:41;15.02;;;8.25;;
56233;SDS011;42141;53.240;6.580;2022-08-19T06:01:10;12.82;;;8.80;;
56233;SDS011;42141;53.240;6.580;2022-08-19T06:03:39;17.08;;;8.20;;
56233;SDS011;42141;53.240;6.580;2022-08-19T06:06:05;11.50;;;8.32;;
56233;SDS011;42141;53.240;6.580;2022-08-19T06:08:33;12.15;;;7.90;;
56233;SDS011;42141;53.240;6.580;2022-08-19T06:11:11;11.57;;;8.23;;
56233;SDS011;42141;53.240;6.580;2022-08-19T06:13:39;14.57;;;8.25;;
56233;SDS011;42141;53.240;6.580;2022-08-19T06:16:05;10.77;;;8.77;;
56233;SDS011;42141;53.240;6.580;2022-08-19T06:18:30;12.27;;;6.88;;
56233;SDS011;42141;53.240;6.580;2022-08-19T06:20:57;10.07;;;7.38;;
56233;SDS011;42141;53.240;6.580;2022-08-19T06:23:22;13.75;;;7.30;;
56233;SDS011;42141;53.240;6.580;2022-08-19T06:25:48;10.00;;;7.47;;
56233;SDS011;42141;53.240;6.580;2022-08-19T06:28:14;13.27;;;6.97;;
56233;SDS011;42141;53.240;6.580;2022-08-19T06:30:40;11.23;;;7.05;;
56233;SDS011;42141;53.240;6.580;2022-08-19T06:33:06;8.57;;;6.05;;
56233;SDS011;42141;53.240;6.580;2022-08-19T06:35:32;7.03;;;5.90;;
56233;SDS011;42141;53.240;6.580;2022-08-19T06:37:58;8.10;;;6.28;;
56233;SDS011;42141;53.240;6.580;2022-08-19T06:40:24;9.75;;;6.40;;
56233;SDS011;42141;53.240;6.580;2022-08-19T06:42:52;10.75;;;5.93;;
56233;SDS011;42141;53.240;6.580;2022-08-19T06:45:18;10.88;;;6.80;;
56233;SDS011;42141;53.240;6.580;2022-08-19T06:47:45;16.40;;;7.55;;
56233;SDS011;42141;53.240;6.580;2022-08-19T06:50:13;11.45;;;6.38;;
56233;SDS011;42141;53.240;6.580;2022-08-19T06:52:39;10.27;;;6.88;;
56233;SDS011;42141;53.240;6.580;2022-08-19T06:55:05;8.60;;;6.38;;
56233;SDS011;42141;53.240;6.580;2022-08-19T06:57:31;9.43;;;6.32;;
56233;SDS011;42141;53.240;6.580;2022-08-19T06:59:58;7.05;;;5.60;;
56233;SDS011;42141;53.240;6.580;2022-08-19T07:02:28;9.35;;;6.07;;
56233;SDS011;42141;53.240;6.580;2022-08-19T07:04:54;7.63;;;6.00;;
56233;SDS011;42141;53.240;6.580;2022-08-19T07:07:23;11.50;;;6.03;;
56233;SDS011;42141;53.240;6.580;2022-08-19T07:09:49;7.05;;;5.68;;
56233;SDS011;42141;53.240;6.580;2022-08-19T07:12:15;9.20;;;5.68;;
56233;SDS011;42141;53.240;6.580;2022-08-19T07:14:41;12.70;;;6.82;;
56233;SDS011;42141;53.240;6.580;2022-08-19T07:17:09;8.70;;;6.30;;
56233;SDS011;42141;53.240;6.580;2022-08-19T07:19:36;10.82;;;6.35;;
56233;SDS011;42141;53.240;6.580;2022-08-19T07:22:04;8.18;;;6.00;;
56233;SDS011;42141;53.240;6.580;2022-08-19T07:24:31;8.20;;;5.72;;
56233;SDS011;42141;53.240;6.580;2022-08-19T07:26:59;8.60;;;5.50;;
56233;SDS011;42141;53.240;6.580;2022-08-19T07:29:27;8.60;;;6.05;;
56233;SDS011;42141;53.240;6.580;2022-08-19T07:31:55;12.85;;;5.60;;
56233;SDS011;42141;53.240;6.580;2022-08-19T07:34:24;6.55;;;5.40;;
56233;SDS011;42141;53.240;6.580;2022-08-19T07:36:52;8.35;;;5.60;;
56233;SDS011;42141;53.240;6.580;2022-08-19T07:39:23;11.43;;;6.32;;
56233;SDS011;42141;53.240;6.580;2022-08-19T07:41:51;11.93;;;6.63;;
56233;SDS011;42141;53.240;6.580;2022-08-19T07:44:17;10.77;;;6.80;;
56233;SDS011;42141;53.240;6.580;2022-08-19T07:46:46;9.05;;;5.93;;
56233;SDS011;42141;53.240;6.580;2022-08-19T07:49:14;8.50;;;5.95;;
56233;SDS011;42141;53.240;6.580;2022-08-19T07:51:44;8.75;;;5.53;;
56233;SDS011;42141;53.240;6.580;2022-08-19T07:54:12;8.57;;;5.70;;
56233;SDS011;42141;53.240;6.580;2022-08-19T07:56:38;9.07;;;5.35;;
56233;SDS011;42141;53.240;6.580;2022-08-19T07:59:04;7.95;;;5.50;;
56233;SDS011;42141;53.240;6.580;2022-08-19T08:01:36;10.97;;;7.07;;
56233;SDS011;42141;53.240;6.580;2022-08-19T08:04:05;11.07;;;6.47;;
56233;SDS011;42141;53.240;6.580;2022-08-19T08:06:51;12.82;;;6.10;;
56233;SDS011;42141;53.240;6.580;2022-08-19T08:09:37;10.13;;;7.75;;
56233;SDS011;42141;53.240;6.580;2022-08-19T08:12:11;9.43;;;7.30;;
56233;SDS011;42141;53.240;6.580;2022-08-19T08:14:44;7.15;;;5.65;;
56233;SDS011;42141;53.240;6.580;2022-08-19T08:17:13;8.77;;;6.43;;
56233;SDS011;42141;53.240;6.580;2022-08-19T08:19:41;7.95;;;6.68;;
56233;SDS011;42141;53.240;6.580;2022-08-19T08:22:08;9.45;;;6.72;;
56233;SDS011;42141;53.240;6.580;2022-08-19T08:24:54;8.98;;;6.60;;
56233;SDS011;42141;53.240;6.580;2022-08-19T08:27:20;6.38;;;5.75;;
56233;SDS011;42141;53.240;6.580;2022-08-19T08:29:46;6.32;;;5.10;;
56233;SDS011;42141;53.240;6.580;2022-08-19T08:32:14;6.95;;;4.75;;
56233;SDS011;42141;53.240;6.580;2022-08-19T08:34:39;7.63;;;5.15;;
56233;SDS011;42141;53.240;6.580;2022-08-19T08:37:05;7.82;;;4.72;;
56233;SDS011;42141;53.240;6.580;2022-08-19T08:39:31;6.03;;;4.38;;
56233;SDS011;42141;53.240;6.580;2022-08-19T08:45:12;5.38;;;3.83;;
56233;SDS011;42141;53.240;6.580;2022-08-19T08:47:41;5.63;;;4.55;;
56233;SDS011;42141;53.240;6.580;2022-08-19T08:53:00;8.63;;;6.43;;
56233;SDS011;42141;53.240;6.580;2022-08-19T08:55:30;7.32;;;6.63;;
56233;SDS011;42141;53.240;6.580;2022-08-19T08:58:04;9.00;;;6.68;;
56233;SDS011;42141;53.240;6.580;2022-08-19T09:00:43;11.30;;;6.65;;
56233;SDS011;42141;53.240;6.580;2022-08-19T09:03:21;9.20;;;7.22;;
56233;SDS011;42141;53.240;6.580;2022-08-19T09:06:06;8.25;;;6.20;;
56233;SDS011;42141;53.240;6.580;2022-08-19T09:14:09;7.95;;;5.07;;
56233;SDS011;42141;53.240;6.580;2022-08-19T09:16:59;6.60;;;5.85;;
56233;SDS011;42141;53.240;6.580;2022-08-19T09:19:28;6.53;;;5.13;;
56233;SDS011;42141;53.240;6.580;2022-08-19T09:21:55;8.30;;;6.32;;
56233;SDS011;42141;53.240;6.580;2022-08-19T09:24:21;6.00;;;5.30;;
56233;SDS011;42141;53.240;6.580;2022-08-19T09:26:46;7.50;;;6.32;;
56233;SDS011;42141;53.240;6.580;2022-08-19T09:29:12;7.97;;;5.97;;
56233;SDS011;42141;53.240;6.580;2022-08-19T09:31:38;6.07;;;5.43;;
56233;SDS011;42141;53.240;6.580;2022-08-19T09:34:04;7.80;;;6.22;;
56233;SDS011;42141;53.240;6.580;2022-08-19T09:36:30;8.38;;;6.72;;
56233;SDS011;42141;53.240;6.580;2022-08-19T09:39:02;7.65;;;6.28;;
56233;SDS011;42141;53.240;6.580;2022-08-19T09:41:28;7.35;;;6.63;;
56233;SDS011;42141;53.240;6.580;2022-08-19T09:43:55;6.93;;;5.88;;
56233;SDS011;42141;53.240;6.580;2022-08-19T09:46:23;9.63;;;6.30;;
56233;SDS011;42141;53.240;6.580;2022-08-19T09:48:51;8.55;;;5.93;;
56233;SDS011;42141;53.240;6.580;2022-08-19T09:51:21;6.65;;;5.93;;
56233;SDS011;42141;53.240;6.580;2022-08-19T09:53:49;7.72;;;6.65;;
56233;SDS011;42141;53.240;6.580;2022-08-19T09:56:18;7.50;;;6.10;;
56233;SDS011;42141;53.240;6.580;2022-08-19T09:58:45;6.32;;;5.65;;
56233;SDS011;42141;53.240;6.580;2022-08-19T10:01:16;6.80;;;5.15;;
56233;SDS011;42141;53.240;6.580;2022-08-19T10:03:52;6.82;;;6.07;;
56233;SDS011;42141;53.240;6.580;2022-08-19T10:08:47;6.88;;;5.82;;
56233;SDS011;42141;53.240;6.580;2022-08-19T10:11:13;8.60;;;7.03;;
56233;SDS011;42141;53.240;6.580;2022-08-19T10:13:41;7.38;;;5.82;;
56233;SDS011;42141;53.240;6.580;2022-08-19T10:16:09;6.68;;;6.05;;
56233;SDS011;42141;53.240;6.580;2022-08-19T10:18:39;10.30;;;7.05;;
56233;SDS011;42141;53.240;6.580;2022-08-19T10:21:12;8.38;;;7.57;;
56233;SDS011;42141;53.240;6.580;2022-08-19T10:23:40;8.25;;;7.40;;
56233;SDS011;42141;53.240;6.580;2022-08-19T10:26:11;6.53;;;5.68;;
56233;SDS011;42141;53.240;6.580;2022-08-19T10:28:41;7.18;;;6.35;;
56233;SDS011;42141;53.240;6.580;2022-08-19T10:31:09;6.95;;;5.47;;
56233;SDS011;42141;53.240;6.580;2022-08-19T10:33:37;10.68;;;7.60;;
56233;SDS011;42141;53.240;6.580;2022-08-19T10:36:05;8.05;;;6.70;;
56233;SDS011;42141;53.240;6.580;2022-08-19T10:38:33;7.53;;;6.28;;
56233;SDS011;42141;53.240;6.580;2022-08-19T10:41:06;8.70;;;7.80;;
56233;SDS011;42141;53.240;6.580;2022-08-19T10:43:37;7.13;;;6.38;;
56233;SDS011;42141;53.240;6.580;2022-08-19T10:46:04;8.52;;;6.43;;
56233;SDS011;42141;53.240;6.580;2022-08-19T10:48:31;6.68;;;5.97;;
56233;SDS011;42141;53.240;6.580;2022-08-19T10:50:58;8.63;;;7.13;;
56233;SDS011;42141;53.240;6.580;2022-08-19T10:53:42;7.75;;;6.85;;
56233;SDS011;42141;53.240;6.580;2022-08-19T10:56:08;8.75;;;7.25;;
56233;SDS011;42141;53.240;6.580;2022-08-19T10:58:52;6.40;;;5.80;;
56233;SDS011;42141;53.240;6.580;2022-08-19T11:01:18;9.80;;;8.45;;
56233;SDS011;42141;53.240;6.580;2022-08-19T11:03:44;7.97;;;6.55;;
56233;SDS011;42141;53.240;6.580;2022-08-19T11:06:10;8.88;;;7.97;;
56233;SDS011;42141;53.240;6.580;2022-08-19T11:08:37;9.77;;;7.75;;
56233;SDS011;42141;53.240;6.580;2022-08-19T11:11:03;7.60;;;6.75;;
56233;SDS011;42141;53.240;6.580;2022-08-19T11:13:32;8.43;;;6.90;;
56233;SDS011;42141;53.240;6.580;2022-08-19T11:18:39;11.07;;;9.48;;
56233;SDS011;42141;53.240;6.580;2022-08-19T11:21:42;9.85;;;8.15;;
56233;SDS011;42141;53.240;6.580;2022-08-19T11:24:02;9.23;;;7.80;;
56233;SDS011;42141;53.240;6.580;2022-08-19T11:26:31;9.02;;;7.72;;
56233;SDS011;42141;53.240;6.580;2022-08-19T11:28:58;8.07;;;7.28;;
56233;SDS011;42141;53.240;6.580;2022-08-19T11:31:26;8.52;;;5.88;;
56233;SDS011;42141;53.240;6.580;2022-08-19T11:33:59;9.35;;;5.88;;
56233;SDS011;42141;53.240;6.580;2022-08-19T11:36:28;7.63;;;6.78;;
56233;SDS011;42141;53.240;6.580;2022-08-19T11:38:54;8.95;;;6.75;;
56233;SDS011;42141;53.240;6.580;2022-08-19T11:41:22;8.77;;;7.88;;
56233;SDS011;42141;53.240;6.580;2022-08-19T11:43:49;8.30;;;7.50;;
56233;SDS011;42141;53.240;6.580;2022-08-19T11:46:18;8.60;;;7.63;;
56233;SDS011;42141;53.240;6.580;2022-08-19T11:48:44;10.13;;;8.55;;
56233;SDS011;42141;53.240;6.580;2022-08-19T11:51:11;6.13;;;5.43;;
56233;SDS011;42141;53.240;6.580;2022-08-19T11:53:39;8.07;;;7.28;;
56233;SDS011;42141;53.240;6.580;2022-08-19T11:56:06;8.07;;;7.15;;
56233;SDS011;42141;53.240;6.580;2022-08-19T11:58:33;10.38;;;7.38;;
56233;SDS011;42141;53.240;6.580;2022-08-19T12:00:59;9.65;;;8.48;;
56233;SDS011;42141;53.240;6.580;2022-08-19T12:03:25;9.68;;;7.25;;
56233;SDS011;42141;53.240;6.580;2022-08-19T12:05:51;8.38;;;6.85;;
56233;SDS011;42141;53.240;6.580;2022-08-19T12:08:17;8.48;;;7.57;;
56233;SDS011;42141;53.240;6.580;2022-08-19T12:10:43;8.55;;;7.32;;
56233;SDS011;42141;53.240;6.580;2022-08-19T12:13:10;9.02;;;7.32;;
56233;SDS011;42141;53.240;6.580;2022-08-19T12:15:43;7.32;;;6.13;;
56233;SDS011;42141;53.240;6.580;2022-08-19T12:18:10;10.95;;;6.22;;
56233;SDS011;42141;53.240;6.580;2022-08-19T12:20:39;7.10;;;5.57;;
56233;SDS011;42141;53.240;6.580;2022-08-19T12:23:08;6.10;;;5.18;;
56233;SDS011;42141;53.240;6.580;2022-08-19T12:25:35;8.50;;;7.47;;
56233;SDS011;42141;53.240;6.580;2022-08-19T12:28:02;7.38;;;6.22;;
56233;SDS011;42141;53.240;6.580;2022-08-19T12:30:28;7.30;;;6.05;;
56233;SDS011;42141;53.240;6.580;2022-08-19T12:32:54;8.57;;;5.68;;
56233;SDS011;42141;53.240;6.580;2022-08-19T12:35:20;8.82;;;6.25;;
56233;SDS011;42141;53.240;6.580;2022-08-19T12:37:47;6.60;;;5.93;;
56233;SDS011;42141;53.240;6.580;2022-08-19T12:40:14;7.00;;;6.30;;
56233;SDS011;42141;53.240;6.580;2022-08-19T12:42:43;11.98;;;7.75;;
56233;SDS011;42141;53.240;6.580;2022-08-19T12:45:10;8.68;;;7.15;;
56233;SDS011;42141;53.240;6.580;2022-08-19T12:47:37;8.88;;;7.45;;
56233;SDS011;42141;53.240;6.580;2022-08-19T12:50:03;9.38;;;7.88;;
56233;SDS011;42141;53.240;6.580;2022-08-19T12:52:33;8.63;;;7.72;;
56233;SDS011;42141;53.240;6.580;2022-08-19T12:55:02;6.85;;;6.15;;
56233;SDS011;42141;53.240;6.580;2022-08-19T12:57:30;6.43;;;5.47;;
56233;SDS011;42141;53.240;6.580;2022-08-19T12:59:58;8.60;;;5.78;;
56233;SDS011;42141;53.240;6.580;2022-08-19T13:02:26;7.57;;;5.05;;
56233;SDS011;42141;53.240;6.580;2022-08-19T13:04:51;9.85;;;6.35;;
56233;SDS011;42141;53.240;6.580;2022-08-19T13:07:17;7.70;;;6.90;;
56233;SDS011;42141;53.240;6.580;2022-08-19T13:09:43;7.75;;;6.10;;
56233;SDS011;42141;53.240;6.580;2022-08-19T13:12:10;8.65;;;6.97;;
56233;SDS011;42141;53.240;6.580;2022-08-19T13:14:38;9.25;;;7.22;;
56233;SDS011;42141;53.240;6.580;2022-08-19T13:17:06;9.45;;;6.40;;
56233;SDS011;42141;53.240;6.580;2022-08-19T13:19:35;10.70;;;8.93;;
56233;SDS011;42141;53.240;6.580;2022-08-19T13:22:01;14.95;;;8.93;;
56233;SDS011;42141;53.240;6.580;2022-08-19T13:24:27;12.02;;;9.00;;
56233;SDS011;42141;53.240;6.580;2022-08-19T13:26:53;11.77;;;9.35;;
56233;SDS011;42141;53.240;6.580;2022-08-19T13:29:20;15.45;;;9.85;;
56233;SDS011;42141;53.240;6.580;2022-08-19T13:32:04;17.58;;;11.63;;
56233;SDS011;42141;53.240;6.580;2022-08-19T13:34:48;12.57;;;9.27;;
56233;SDS011;42141;53.240;6.580;2022-08-19T13:37:14;15.07;;;8.60;;
56233;SDS011;42141;53.240;6.580;2022-08-19T13:39:46;11.65;;;7.60;;
56233;SDS011;42141;53.240;6.580;2022-08-19T13:42:12;10.82;;;8.45;;
56233;SDS011;42141;53.240;6.580;2022-08-19T13:44:39;13.77;;;9.98;;
56233;SDS011;42141;53.240;6.580;2022-08-19T13:47:05;13.32;;;8.32;;
56233;SDS011;42141;53.240;6.580;2022-08-19T13:49:31;11.68;;;9.00;;
56233;SDS011;42141;53.240;6.580;2022-08-19T13:51:58;13.35;;;9.48;;
56233;SDS011;42141;53.240;6.580;2022-08-19T13:54:24;14.13;;;9.27;;
56233;SDS011;42141;53.240;6.580;2022-08-19T13:56:50;10.65;;;8.13;;
56233;SDS011;42141;53.240;6.580;2022-08-19T13:59:15;17.23;;;8.90;;
56233;SDS011;42141;53.240;6.580;2022-08-19T14:01:42;10.20;;;8.35;;
56233;SDS011;42141;53.240;6.580;2022-08-19T14:04:08;7.30;;;6.55;;
56233;SDS011;42141;53.240;6.580;2022-08-19T14:06:33;9.32;;;6.68;;
56233;SDS011;42141;53.240;6.580;2022-08-19T14:08:59;7.80;;;5.43;;
56233;SDS011;42141;53.240;6.580;2022-08-19T14:11:27;6.20;;;4.88;;
56233;SDS011;42141;53.240;6.580;2022-08-19T14:13:53;5.57;;;5.00;;
56233;SDS011;42141;53.240;6.580;2022-08-19T14:16:18;5.57;;;4.15;;
56233;SDS011;42141;53.240;6.580;2022-08-19T14:18:46;5.47;;;3.20;;
56233;SDS011;42141;53.240;6.580;2022-08-19T14:21:22;3.42;;;3.13;;
56233;SDS011;42141;53.240;6.580;2022-08-19T14:23:50;5.93;;;3.80;;
56233;SDS011;42141;53.240;6.580;2022-08-19T14:26:17;6.93;;;3.88;;
56233;SDS011;42141;53.240;6.580;2022-08-19T14:28:43;7.07;;;4.45;;
56233;SDS011;42141;53.240;6.580;2022-08-19T14:31:10;5.85;;;4.63;;
56233;SDS011;42141;53.240;6.580;2022-08-19T14:33:37;8.18;;;5.10;;
56233;SDS011;42141;53.240;6.580;2022-08-19T14:36:03;6.10;;;5.25;;
56233;SDS011;42141;53.240;6.580;2022-08-19T14:38:30;11.90;;;7.13;;
56233;SDS011;42141;53.240;6.580;2022-08-19T14:43:46;19.40;;;8.05;;
56233;SDS011;42141;53.240;6.580;2022-08-19T14:46:17;11.02;;;7.43;;
56233;SDS011;42141;53.240;6.580;2022-08-19T14:48:45;9.88;;;7.45;;
56233;SDS011;42141;53.240;6.580;2022-08-19T14:51:11;12.35;;;8.02;;
56233;SDS011;42141;53.240;6.580;2022-08-19T14:53:37;16.17;;;9.00;;
56233;SDS011;42141;53.240;6.580;2022-08-19T14:56:07;11.70;;;8.27;;
56233;SDS011;42141;53.240;6.580;2022-08-19T14:58:38;12.30;;;8.40;;
56233;SDS011;42141;53.240;6.580;2022-08-19T15:01:06;11.13;;;8.52;;
56233;SDS011;42141;53.240;6.580;2022-08-19T15:03:32;10.70;;;8.88;;
56233;SDS011;42141;53.240;6.580;2022-08-19T15:05:59;11.35;;;8.45;;